createdAt,value
2022-11-22T00:00:00.293Z,9.80
2022-11-22T00:02:27.246Z,9.80
2022-11-22T00:04:54.284Z,9.80
2022-11-22T00:07:21.340Z,9.70
2022-11-22T00:09:48.318Z,9.70
2022-11-22T00:12:15.272Z,9.80
2022-11-22T00:14:42.202Z,9.80
2022-11-22T00:17:12.570Z,9.70
2022-11-22T00:19:39.541Z,9.70
2022-11-22T00:22:06.898Z,9.80
2022-11-22T00:24:34.114Z,9.80
2022-11-22T00:27:01.517Z,9.80
2022-11-22T00:29:28.717Z,9.80
2022-11-22T00:31:55.873Z,9.80
2022-11-22T00:34:22.797Z,9.80
2022-11-22T00:36:49.766Z,9.80
2022-11-22T00:39:16.675Z,9.90
2022-11-22T00:41:43.650Z,9.90
2022-11-22T00:44:10.616Z,9.90
2022-11-22T00:46:37.612Z,9.90
2022-11-22T00:49:05.864Z,9.90
2022-11-22T00:51:33.040Z,9.90
2022-11-22T00:53:59.965Z,9.90
2022-11-22T00:56:26.910Z,9.90
2022-11-22T00:58:53.842Z,10.00
2022-11-22T01:01:20.840Z,10.00
2022-11-22T01:03:47.839Z,10.00
2022-11-22T01:06:14.864Z,10.10
2022-11-22T01:08:41.779Z,10.10
2022-11-22T01:11:09.316Z,10.10
2022-11-22T01:13:36.527Z,10.20
2022-11-22T01:16:06.797Z,10.20
2022-11-22T01:18:35.815Z,10.20
2022-11-22T01:21:02.788Z,10.10
2022-11-22T01:23:29.742Z,10.10
2022-11-22T01:25:56.709Z,10.10
2022-11-22T01:28:23.636Z,10.10
2022-11-22T01:30:52.381Z,10.20
2022-11-22T01:33:20.445Z,10.20
2022-11-22T01:35:47.808Z,10.20
2022-11-22T01:38:14.715Z,10.10
2022-11-22T01:40:42.078Z,10.10
2022-11-22T01:43:20.320Z,10.10
2022-11-22T01:46:09.931Z,10.10
2022-11-22T01:48:53.547Z,10.00
2022-11-22T01:51:29.608Z,10.00
2022-11-22T01:54:00.273Z,10.00
2022-11-22T01:56:29.661Z,9.90
2022-11-22T01:59:05.402Z,9.90
2022-11-22T02:01:32.922Z,9.90
2022-11-22T02:04:02.367Z,9.80
2022-11-22T02:06:46.232Z,9.90
2022-11-22T02:09:14.634Z,9.90
2022-11-22T02:11:50.521Z,9.90
2022-11-22T02:14:23.815Z,9.90
2022-11-22T02:16:50.755Z,10.00
2022-11-22T02:19:33.891Z,10.00
2022-11-22T02:22:28.222Z,10.10
2022-11-22T02:25:17.650Z,10.10
2022-11-22T02:27:44.634Z,10.10
2022-11-22T02:30:12.373Z,10.10
2022-11-22T02:32:39.357Z,10.20
2022-11-22T02:35:21.795Z,10.20
2022-11-22T02:38:10.983Z,10.30
2022-11-22T02:40:44.259Z,10.30
2022-11-22T02:43:20.030Z,10.30
2022-11-22T02:45:46.999Z,10.40
2022-11-22T02:48:17.126Z,10.40
2022-11-22T02:50:44.593Z,10.40
2022-11-22T02:53:12.883Z,10.50
2022-11-22T02:55:40.395Z,10.50
2022-11-22T02:58:07.333Z,10.50
2022-11-22T03:00:36.374Z,10.60
2022-11-22T03:03:03.409Z,10.60
2022-11-22T03:05:30.334Z,10.70
2022-11-22T03:07:57.295Z,10.70
2022-11-22T03:10:24.318Z,10.80
2022-11-22T03:12:51.342Z,10.80
2022-11-22T03:15:18.382Z,10.80
2022-11-22T03:17:45.307Z,10.80
2022-11-22T03:20:12.623Z,10.80
2022-11-22T03:22:39.560Z,10.90
2022-11-22T03:25:07.006Z,10.90
2022-11-22T03:27:33.967Z,10.90
2022-11-22T03:30:00.873Z,10.90
2022-11-22T03:32:27.801Z,10.90
2022-11-22T03:34:54.752Z,10.90
2022-11-22T03:37:21.740Z,11.00
2022-11-22T03:39:48.656Z,10.90
2022-11-22T03:42:20.957Z,11.00
2022-11-22T03:44:48.924Z,11.00
2022-11-22T03:47:16.001Z,10.90
2022-11-22T03:49:42.972Z,10.90
2022-11-22T03:52:10.338Z,10.90
2022-11-22T03:54:37.243Z,10.80
2022-11-22T03:57:05.515Z,10.80
2022-11-22T03:59:32.970Z,10.80
2022-11-22T04:02:00.049Z,10.70
2022-11-22T04:04:27.358Z,10.70
2022-11-22T04:06:54.297Z,10.70
2022-11-22T04:09:22.127Z,10.70
2022-11-22T04:11:49.115Z,10.80
2022-11-22T04:14:34.347Z,10.70
2022-11-22T04:17:01.335Z,10.70
2022-11-22T04:19:28.683Z,10.70
2022-11-22T04:21:55.865Z,10.70
2022-11-22T04:24:41.496Z,10.70
2022-11-22T04:27:08.384Z,10.70
2022-11-22T04:29:35.318Z,10.80
2022-11-22T04:32:20.589Z,10.80
2022-11-22T04:34:47.549Z,10.80
2022-11-22T04:37:14.480Z,10.80
2022-11-22T04:39:41.441Z,10.80
2022-11-22T04:42:27.522Z,10.80
2022-11-22T04:44:56.526Z,10.80
2022-11-22T04:47:45.039Z,10.70
2022-11-22T04:50:34.693Z,10.60
2022-11-22T04:53:01.636Z,10.60
2022-11-22T04:55:28.612Z,10.50
2022-11-22T04:57:59.621Z,10.60
2022-11-22T05:00:31.130Z,10.50
2022-11-22T05:02:59.120Z,10.50
2022-11-22T05:05:26.981Z,10.50
2022-11-22T05:07:54.259Z,10.40
2022-11-22T05:10:26.511Z,10.50
2022-11-22T05:12:54.719Z,10.40
2022-11-22T05:15:21.715Z,10.40
2022-11-22T05:17:48.718Z,10.40
2022-11-22T05:20:15.731Z,10.40
2022-11-22T05:23:01.096Z,10.40
2022-11-22T05:25:28.035Z,10.40
2022-11-22T05:27:55.268Z,10.40
2022-11-22T05:30:22.275Z,10.30
2022-11-22T05:32:49.194Z,10.30
2022-11-22T05:35:16.303Z,10.30
2022-11-22T05:37:43.178Z,10.30
2022-11-22T05:40:10.969Z,10.30
2022-11-22T05:42:37.899Z,10.30
2022-11-22T05:45:05.156Z,10.30
2022-11-22T05:47:36.267Z,10.30
2022-11-22T05:50:03.746Z,10.30
2022-11-22T05:52:30.667Z,10.30
2022-11-22T05:54:57.679Z,10.20
2022-11-22T05:57:24.631Z,10.20
2022-11-22T05:59:51.546Z,10.10
2022-11-22T06:02:18.715Z,10.10
2022-11-22T06:04:45.911Z,10.10
2022-11-22T06:07:12.921Z,10.00
2022-11-22T06:09:39.917Z,10.00
2022-11-22T06:12:07.052Z,9.90
2022-11-22T06:14:38.487Z,9.90
2022-11-22T06:17:08.621Z,9.90
2022-11-22T06:19:35.535Z,9.90
2022-11-22T06:22:02.483Z,9.80
2022-11-22T06:24:29.432Z,9.70
2022-11-22T06:26:56.347Z,9.70
2022-11-22T06:29:23.333Z,9.60
2022-11-22T06:31:50.302Z,9.60
2022-11-22T06:34:17.235Z,9.50
2022-11-22T06:36:44.227Z,9.50
2022-11-22T06:39:11.226Z,9.40
2022-11-22T06:41:38.344Z,9.40
2022-11-22T06:44:09.586Z,9.40
2022-11-22T06:46:37.551Z,9.40
2022-11-22T06:49:04.796Z,9.30
2022-11-22T06:51:32.795Z,9.30
2022-11-22T06:53:59.943Z,9.30
2022-11-22T06:56:33.165Z,9.30
2022-11-22T06:59:03.827Z,9.30
2022-11-22T07:01:32.233Z,9.30
2022-11-22T07:04:01.499Z,9.20
2022-11-22T07:06:31.050Z,9.20
2022-11-22T07:08:59.780Z,9.20
2022-11-22T07:11:28.984Z,9.20
2022-11-22T07:14:01.922Z,9.20
2022-11-22T07:16:33.809Z,9.20
2022-11-22T07:19:00.963Z,9.20
2022-11-22T07:21:28.468Z,9.20
2022-11-22T07:23:56.265Z,9.20
2022-11-22T07:26:24.889Z,9.20
2022-11-22T07:28:52.044Z,9.20
2022-11-22T07:31:19.833Z,9.30
2022-11-22T07:33:46.829Z,9.30
2022-11-22T07:36:19.660Z,9.30
2022-11-22T07:38:48.034Z,9.30
2022-11-22T07:41:16.195Z,9.30
2022-11-22T07:43:43.549Z,9.40
2022-11-22T07:46:33.298Z,9.50
2022-11-22T07:49:01.880Z,9.50
2022-11-22T07:51:29.650Z,9.50
2022-11-22T07:53:58.009Z,9.60
2022-11-22T07:56:25.122Z,9.70
2022-11-22T07:58:52.298Z,9.80
2022-11-22T08:01:19.558Z,9.80
2022-11-22T08:03:46.932Z,9.80
2022-11-22T08:06:15.304Z,9.80
2022-11-22T08:08:42.635Z,9.90
2022-11-22T08:11:10.559Z,9.90
2022-11-22T08:13:37.635Z,9.90
2022-11-22T08:16:07.620Z,9.90
2022-11-22T08:18:36.071Z,9.90
2022-11-22T08:21:11.008Z,9.80
2022-11-22T08:23:38.842Z,9.80
2022-11-22T08:26:07.583Z,9.80
2022-11-22T08:28:34.960Z,9.80
2022-11-22T08:31:08.651Z,9.70
2022-11-22T08:33:35.835Z,9.70
2022-11-22T08:36:02.922Z,9.60
2022-11-22T08:38:30.059Z,9.60
2022-11-22T08:40:57.013Z,9.60
2022-11-22T08:43:24.577Z,9.60
2022-11-22T08:45:57.385Z,9.60
2022-11-22T08:48:26.092Z,9.50
2022-11-22T08:50:54.967Z,9.60
2022-11-22T08:53:22.314Z,9.60
2022-11-22T08:55:49.452Z,9.60
2022-11-22T08:58:16.529Z,9.60
2022-11-22T09:00:43.965Z,9.60
2022-11-22T09:03:10.908Z,9.60
2022-11-22T09:08:24.908Z,9.50
2022-11-22T09:10:51.871Z,9.50
2022-11-22T09:13:18.805Z,9.50
2022-11-22T09:15:46.425Z,9.50
2022-11-22T09:18:13.348Z,9.50
2022-11-22T09:20:40.467Z,9.50
2022-11-22T09:23:07.474Z,9.50
2022-11-22T09:25:34.398Z,9.50
2022-11-22T09:28:04.504Z,9.50
2022-11-22T09:30:31.634Z,9.50
2022-11-22T09:32:58.591Z,9.50
2022-11-22T09:35:25.555Z,9.50
2022-11-22T09:37:52.467Z,9.50
2022-11-22T09:40:19.610Z,9.50
2022-11-22T09:43:02.483Z,9.50
2022-11-22T09:45:56.485Z,9.40
2022-11-22T09:48:38.450Z,9.40
2022-11-22T09:51:19.942Z,9.40
2022-11-22T09:54:01.546Z,9.40
2022-11-22T09:56:30.503Z,9.40
2022-11-22T09:59:16.167Z,9.40
2022-11-22T10:01:50.274Z,9.40
2022-11-22T10:04:21.299Z,9.40
2022-11-22T10:06:59.412Z,9.40
2022-11-22T10:10:07.077Z,9.40
2022-11-22T10:12:43.121Z,9.40
2022-11-22T10:15:41.425Z,9.40
2022-11-22T10:18:23.106Z,9.40
2022-11-22T10:20:50.163Z,9.40
2022-11-22T10:23:22.809Z,9.40
2022-11-22T10:26:21.142Z,9.50
2022-11-22T10:28:53.679Z,9.50
2022-11-22T10:31:29.671Z,9.50
2022-11-22T10:34:02.127Z,9.50
2022-11-22T10:36:38.135Z,9.50
2022-11-22T10:39:19.875Z,9.50
2022-11-22T10:41:55.015Z,9.50
2022-11-22T10:45:13.091Z,9.50
2022-11-22T10:48:07.858Z,9.50
2022-11-22T10:50:52.632Z,9.50
2022-11-22T10:53:50.490Z,9.50
2022-11-22T10:56:17.373Z,9.40
2022-11-22T10:59:16.544Z,9.40
2022-11-22T11:02:09.225Z,9.40
2022-11-22T11:04:40.068Z,9.40
2022-11-22T11:07:12.742Z,9.40
2022-11-22T11:12:37.237Z,9.40
2022-11-22T11:15:35.375Z,9.50
2022-11-22T11:18:06.626Z,9.50
2022-11-22T11:20:41.076Z,9.50
2022-11-22T11:23:15.158Z,9.50
2022-11-22T11:25:48.038Z,9.50
2022-11-22T11:28:24.071Z,9.60
2022-11-22T11:31:06.742Z,9.60
2022-11-22T11:33:38.140Z,9.60
2022-11-22T11:36:08.096Z,9.60
2022-11-22T11:38:48.923Z,9.60
2022-11-22T11:41:42.077Z,9.50
2022-11-22T11:44:36.159Z,9.40
2022-11-22T11:47:04.498Z,9.40
2022-11-22T11:49:33.812Z,9.40
2022-11-22T11:52:08.659Z,9.40
2022-11-22T11:54:38.406Z,9.40
2022-11-22T11:57:09.722Z,9.30
2022-11-22T11:59:36.624Z,9.30
2022-11-22T12:02:14.697Z,9.30
2022-11-22T12:05:31.173Z,9.30
2022-11-22T12:07:58.827Z,9.30
2022-11-22T12:10:49.623Z,9.40
2022-11-22T12:14:04.649Z,9.40
2022-11-22T12:16:46.551Z,9.50
2022-11-22T12:19:49.534Z,9.50
2022-11-22T12:22:48.959Z,9.40
2022-11-22T12:25:39.017Z,9.50
2022-11-22T12:28:15.367Z,9.50
2022-11-22T12:30:43.951Z,9.50
2022-11-22T12:33:21.441Z,9.50
2022-11-22T12:35:49.770Z,9.50
2022-11-22T12:38:25.424Z,9.50
2022-11-22T12:40:56.394Z,9.50
2022-11-22T12:43:36.611Z,9.50
2022-11-22T12:46:18.636Z,9.40
2022-11-22T12:48:55.950Z,9.30
2022-11-22T12:51:48.692Z,9.30
2022-11-22T12:54:22.325Z,9.30
2022-11-22T12:56:54.883Z,9.20
2022-11-22T12:59:28.541Z,9.10
2022-11-22T13:02:03.288Z,9.10
2022-11-22T13:05:00.509Z,9.10
2022-11-22T13:07:36.489Z,9.10
2022-11-22T13:10:12.078Z,9.10
2022-11-22T13:12:41.269Z,9.10
2022-11-22T13:15:14.304Z,9.10
2022-11-22T13:17:41.364Z,9.10
2022-11-22T13:20:08.313Z,9.00
2022-11-22T13:23:16.150Z,9.10
2022-11-22T13:25:43.219Z,9.10
2022-11-22T13:28:15.148Z,9.10
2022-11-22T13:31:11.253Z,9.20
2022-11-22T13:33:42.641Z,9.20
2022-11-22T13:36:27.617Z,9.20
2022-11-22T13:38:55.905Z,9.30
2022-11-22T13:41:50.652Z,9.30
2022-11-22T13:44:23.571Z,9.30
2022-11-22T13:46:50.542Z,9.30
2022-11-22T13:49:36.833Z,9.30
2022-11-22T13:52:49.746Z,9.30
2022-11-22T13:55:30.165Z,9.30
2022-11-22T13:58:17.027Z,9.30
2022-11-22T14:00:44.007Z,9.30
2022-11-22T14:03:22.900Z,9.30
2022-11-22T14:05:52.464Z,9.30
2022-11-22T14:08:49.215Z,9.20
2022-11-22T14:12:08.399Z,9.30
2022-11-22T14:14:59.844Z,9.20
2022-11-22T14:17:47.617Z,9.20
2022-11-22T14:20:27.201Z,9.20
2022-11-22T14:23:10.998Z,9.20
2022-11-22T14:25:58.799Z,9.20
2022-11-22T14:28:29.462Z,9.20
2022-11-22T14:30:57.290Z,9.10
2022-11-22T14:33:28.583Z,9.10
2022-11-22T14:36:07.552Z,9.10
2022-11-22T14:38:40.368Z,9.10
2022-11-22T14:41:29.262Z,9.00
2022-11-22T14:44:34.189Z,9.00
2022-11-22T14:47:14.751Z,9.00
2022-11-22T14:49:45.625Z,9.00
2022-11-22T14:52:22.727Z,8.90
2022-11-22T14:55:01.742Z,8.90
2022-11-22T14:57:31.001Z,8.80
2022-11-22T15:00:08.749Z,8.70
2022-11-22T15:03:03.651Z,8.70
2022-11-22T15:09:10.284Z,8.70
2022-11-22T15:09:14.560Z,8.70
2022-11-22T15:11:40.731Z,8.60
2022-11-22T15:14:25.997Z,8.60
2022-11-22T15:59:31.305Z,8.40
2022-11-22T16:02:01.422Z,8.40
2022-11-22T16:04:31.775Z,8.40
2022-11-22T16:07:01.886Z,8.40
2022-11-22T16:09:34.070Z,8.40
2022-11-22T16:12:04.774Z,8.40
2022-11-22T16:14:42.104Z,8.40
2022-11-22T16:17:29.938Z,8.40
2022-11-22T16:20:24.257Z,8.50
2022-11-22T16:23:09.277Z,8.50
2022-11-22T16:25:38.560Z,8.50
2022-11-22T16:28:14.590Z,8.50
2022-11-22T16:30:45.668Z,8.50
2022-11-22T16:33:13.034Z,8.50
2022-11-22T16:35:40.174Z,8.50
2022-11-22T16:38:07.609Z,8.50
2022-11-22T16:40:44.232Z,8.50
2022-11-22T16:43:23.024Z,8.50
2022-11-22T16:45:50.727Z,8.60
2022-11-22T16:48:32.372Z,8.50
2022-11-22T16:51:06.449Z,8.60
2022-11-22T16:53:48.029Z,8.60
2022-11-22T16:56:22.061Z,8.60
2022-11-22T16:58:50.216Z,8.60
2022-11-22T17:01:20.021Z,8.60
2022-11-22T17:03:50.013Z,8.60
2022-11-22T17:06:21.980Z,8.60
2022-11-22T17:08:50.767Z,8.70
2022-11-22T17:11:21.059Z,8.70
2022-11-22T17:13:48.279Z,8.70
2022-11-22T17:16:17.918Z,8.70
2022-11-22T17:18:46.616Z,8.70
2022-11-22T17:21:31.575Z,8.70
2022-11-22T17:24:06.537Z,8.70
2022-11-22T17:26:34.871Z,8.70
2022-11-22T17:29:02.271Z,8.70
2022-11-22T17:31:29.646Z,8.70
2022-11-22T17:33:58.633Z,8.70
2022-11-22T17:36:37.453Z,8.70
2022-11-22T17:39:07.320Z,8.70
2022-11-22T17:41:35.421Z,8.70
2022-11-22T17:44:03.066Z,8.70
2022-11-22T17:46:31.999Z,8.70
2022-11-22T17:49:01.046Z,8.70
2022-11-22T17:51:29.253Z,8.70
2022-11-22T17:53:58.610Z,8.70
2022-11-22T17:56:27.296Z,8.70
2022-11-22T17:58:54.272Z,8.70
2022-11-22T18:01:22.678Z,8.70
2022-11-22T18:03:49.812Z,8.70
2022-11-22T18:06:17.906Z,8.70
2022-11-22T18:08:47.163Z,8.70
2022-11-22T18:11:15.155Z,8.70
2022-11-22T18:13:42.524Z,8.70
2022-11-22T18:16:18.577Z,8.70
2022-11-22T18:18:56.700Z,8.70
2022-11-22T18:21:24.888Z,8.70
2022-11-22T18:23:51.860Z,8.70
2022-11-22T18:31:53.538Z,8.70
2022-11-22T18:34:21.370Z,8.70
2022-11-22T18:37:04.651Z,8.70
2022-11-22T18:39:38.325Z,8.70
2022-11-22T18:42:06.524Z,8.70
2022-11-22T18:44:34.273Z,8.70
2022-11-22T18:47:01.746Z,8.70
2022-11-22T18:49:28.832Z,8.70
2022-11-22T18:51:56.089Z,8.70
2022-11-22T18:54:23.693Z,8.70
2022-11-22T18:56:54.329Z,8.70
2022-11-22T18:59:21.382Z,8.70
2022-11-22T19:01:48.404Z,8.70
2022-11-22T19:04:16.204Z,8.70
2022-11-22T19:06:44.140Z,8.70
2022-11-22T19:09:11.382Z,8.70
2022-11-22T19:11:38.406Z,8.70
2022-11-22T19:14:05.426Z,8.70
2022-11-22T19:16:32.414Z,8.70
2022-11-22T19:18:59.931Z,8.70
2022-11-22T19:21:28.595Z,8.70
2022-11-22T19:23:56.655Z,8.70
2022-11-22T19:26:26.462Z,8.70
2022-11-22T19:28:55.770Z,8.70
2022-11-22T19:31:25.274Z,8.70
2022-11-22T19:33:52.510Z,8.70
2022-11-22T19:36:21.513Z,8.70
2022-11-22T19:38:49.467Z,8.70
2022-11-22T19:41:18.728Z,8.70
2022-11-22T19:43:47.091Z,8.70
2022-11-22T19:46:14.807Z,8.70
2022-11-22T19:48:47.014Z,8.70
2022-11-22T19:51:15.617Z,8.70
2022-11-22T19:53:42.671Z,8.60
2022-11-22T19:56:17.873Z,8.70
2022-11-22T19:58:50.850Z,8.70
2022-11-22T20:01:18.348Z,8.60
2022-11-22T20:03:45.681Z,8.60
2022-11-22T20:06:14.353Z,8.60
2022-11-22T20:08:41.656Z,8.60
2022-11-22T20:11:14.238Z,8.60
2022-11-22T20:13:43.378Z,8.60
2022-11-22T20:16:15.202Z,8.60
2022-11-22T20:18:42.597Z,8.60
2022-11-22T20:21:11.114Z,8.70
2022-11-22T20:23:39.247Z,8.70
2022-11-22T20:26:11.906Z,8.60
2022-11-22T20:28:40.157Z,8.70
2022-11-22T20:31:12.890Z,8.60
2022-11-22T20:33:42.194Z,8.70
2022-11-22T20:36:11.967Z,8.60
2022-11-22T20:38:41.550Z,8.60
2022-11-22T20:41:10.464Z,8.60
2022-11-22T20:43:37.938Z,8.60
2022-11-22T20:46:04.839Z,8.50
2022-11-22T20:48:32.580Z,8.60
2022-11-22T20:51:01.567Z,8.60
2022-11-22T20:53:29.401Z,8.60
2022-11-22T20:55:56.726Z,8.60
2022-11-22T20:58:25.938Z,8.60
2022-11-22T21:00:54.014Z,8.60
2022-11-22T21:03:21.564Z,8.50
2022-11-22T21:05:53.905Z,8.50
2022-11-22T21:08:22.367Z,8.50
2022-11-22T21:10:49.403Z,8.50
2022-11-22T21:13:16.440Z,8.50
2022-11-22T21:15:43.691Z,8.50
2022-11-22T21:18:27.107Z,8.50
2022-11-22T21:20:54.110Z,8.50
2022-11-22T21:23:21.020Z,8.50
2022-11-22T21:25:50.495Z,8.50
2022-11-22T21:28:17.504Z,8.40
2022-11-22T21:30:44.849Z,8.40
2022-11-22T21:33:11.806Z,8.40
2022-11-22T21:35:38.715Z,8.40
2022-11-22T21:38:05.629Z,8.40
2022-11-22T21:40:33.110Z,8.40
2022-11-22T21:43:00.098Z,8.40
2022-11-22T21:45:26.986Z,8.40
2022-11-22T21:47:53.923Z,8.40
2022-11-22T21:50:20.963Z,8.40
2022-11-22T21:52:48.644Z,8.40
2022-11-22T21:55:15.911Z,8.40
2022-11-22T21:57:42.917Z,8.40
2022-11-22T22:00:11.300Z,8.40
2022-11-22T22:02:38.282Z,8.40
2022-11-22T22:05:05.753Z,8.40
2022-11-22T22:10:20.051Z,8.40
2022-11-22T22:12:51.068Z,8.30
2022-11-22T22:15:18.564Z,8.40
2022-11-22T22:17:45.660Z,8.30
2022-11-22T22:20:13.262Z,8.30
2022-11-22T22:22:40.230Z,8.30
2022-11-22T22:25:07.716Z,8.30
2022-11-22T22:27:34.991Z,8.30
2022-11-22T22:30:02.023Z,8.30
2022-11-22T22:32:28.999Z,8.30
2022-11-22T22:34:55.977Z,8.30
2022-11-22T22:37:22.964Z,8.30
2022-11-22T22:39:51.681Z,8.30
2022-11-22T22:42:19.630Z,8.30
2022-11-22T22:44:47.464Z,8.30
2022-11-22T22:47:14.903Z,8.30
2022-11-22T22:49:41.912Z,8.30
2022-11-22T22:52:08.854Z,8.20
2022-11-22T22:54:36.078Z,8.20
2022-11-22T22:57:03.564Z,8.20
2022-11-22T22:59:31.504Z,8.10
2022-11-22T23:01:58.476Z,8.10
2022-11-22T23:04:25.631Z,8.10
2022-11-22T23:06:52.562Z,8.10
2022-11-22T23:09:19.543Z,8.00
2022-11-22T23:12:04.920Z,8.00
2022-11-22T23:14:31.804Z,8.00
2022-11-22T23:16:58.724Z,8.00
2022-11-22T23:19:26.591Z,8.00
2022-11-22T23:21:53.779Z,8.00
2022-11-22T23:24:20.752Z,8.00
2022-11-22T23:26:47.816Z,8.00
2022-11-22T23:29:14.889Z,8.00
2022-11-22T23:31:41.794Z,8.00
2022-11-22T23:34:11.082Z,8.00
2022-11-22T23:36:41.022Z,8.10
2022-11-22T23:39:09.086Z,8.10
2022-11-22T23:41:36.068Z,8.10
2022-11-22T23:44:03.339Z,8.10
2022-11-22T23:46:30.516Z,8.00
2022-11-22T23:49:01.452Z,8.00
2022-11-22T23:51:29.890Z,8.00
2022-11-22T23:53:59.660Z,8.00
2022-11-22T23:56:28.466Z,8.00
2022-11-22T23:58:57.891Z,7.90
